Time;durP1;ratioP1;P1;durP2;ratioP2;P2;SDS_P1;SDS_P2;PMS_P1;PMS_P2;Temp;Humidity;BMP_temperature;BMP_pressure;BME280_temperature;BME280_humidity;BME280_pressure;Samples;Min_cycle;Max_cycle;Signal;HPM_P1;HPM_P2
2021/10/03 00:00:20;;;;;;;10.13;6.00;;;14.90;99.90;;;;;;4848291;29;20041;-87
2021/10/03 00:02:49;;;;;;;9.07;5.85;;;14.90;99.90;;;;;;4869465;29;20048;-88
2021/10/03 00:05:17;;;;;;;10.13;5.93;;;14.90;99.90;;;;;;4861240;29;20504;-81
2021/10/03 00:07:50;;;;;;;11.32;6.25;;;14.90;99.90;;;;;;4859700;29;20045;-81
2021/10/03 00:10:24;;;;;;;9.70;5.80;;;14.90;99.90;;;;;;4844528;29;20045;-81
2021/10/03 00:12:51;;;;;;;8.75;4.80;;;15.10;99.90;;;;;;4860984;29;20045;-81
2021/10/03 00:15:19;;;;;;;11.85;5.57;;;14.90;99.90;;;;;;4844406;29;20103;-81
2021/10/03 00:17:45;;;;;;;8.55;5.10;;;15.00;99.90;;;;;;4861069;29;20036;-81
2021/10/03 00:20:13;;;;;;;7.90;4.78;;;15.00;99.90;;;;;;4860154;29;20116;-87
2021/10/03 00:22:39;;;;;;;8.45;4.85;;;15.00;99.90;;;;;;4859801;29;20125;-87
2021/10/03 00:25:08;;;;;;;6.20;4.97;;;15.00;99.90;;;;;;4866966;29;20049;-87
2021/10/03 00:27:34;;;;;;;7.43;5.00;;;15.00;99.90;;;;;;4866641;29;20041;-86
2021/10/03 00:30:00;;;;;;;7.25;5.00;;;15.00;99.90;;;;;;4861139;29;20043;-86
2021/10/03 00:32:26;;;;;;;7.00;5.20;;;15.10;99.90;;;;;;4871007;29;20084;-86
2021/10/03 00:34:52;;;;;;;6.00;4.18;;;15.10;99.90;;;;;;4861122;29;20042;-86
2021/10/03 00:37:18;;;;;;;7.93;4.80;;;15.00;99.90;;;;;;4861105;29;20045;-86
2021/10/03 00:39:44;;;;;;;7.72;4.68;;;15.10;99.90;;;;;;4857077;29;20045;-87
2021/10/03 00:42:10;;;;;;;7.10;4.60;;;15.00;99.90;;;;;;4843828;29;20133;-87
2021/10/03 00:44:36;;;;;;;6.18;4.05;;;15.10;99.90;;;;;;4859250;29;20069;-86
2021/10/03 00:47:02;;;;;;;6.65;4.03;;;15.10;99.90;;;;;;4844492;29;20073;-87
2021/10/03 00:49:33;;;;;;;6.05;3.83;;;15.10;99.90;;;;;;4859870;29;20050;-80
2021/10/03 00:52:00;;;;;;;5.80;3.58;;;15.10;99.90;;;;;;4829674;29;20049;-87
2021/10/03 00:54:26;;;;;;;7.20;3.55;;;15.20;99.90;;;;;;4859487;29;20173;-86
2021/10/03 00:56:52;;;;;;;11.02;3.30;;;15.10;99.90;;;;;;4854054;29;20416;-87
2021/10/03 00:59:18;;;;;;;4.05;3.28;;;15.20;99.90;;;;;;4855614;29;20140;-86
2021/10/03 01:01:44;;;;;;;6.20;3.35;;;15.30;99.90;;;;;;4859185;29;20045;-87
2021/10/03 01:04:10;;;;;;;7.47;2.90;;;14.90;99.90;;;;;;4859380;29;20459;-86
2021/10/03 01:06:36;;;;;;;7.18;3.10;;;15.30;99.90;;;;;;4853068;29;20115;-87
2021/10/03 01:09:03;;;;;;;8.27;2.90;;;15.30;99.90;;;;;;4847946;29;20049;-87
2021/10/03 01:11:29;;;;;;;6.43;2.97;;;15.60;99.90;;;;;;4866160;29;20048;-87
2021/10/03 01:13:54;;;;;;;4.68;2.53;;;15.30;99.90;;;;;;4876822;29;20046;-87
2021/10/03 01:16:20;;;;;;;2.50;2.10;;;15.40;99.90;;;;;;4868548;29;20128;-87
2021/10/03 01:18:46;;;;;;;3.95;2.20;;;15.40;99.90;;;;;;4848384;29;20482;-86
2021/10/03 01:21:13;;;;;;;3.65;2.00;;;15.40;99.90;;;;;;4869753;29;20120;-87
2021/10/03 01:23:39;;;;;;;5.25;2.00;;;15.40;99.90;;;;;;4877641;29;20556;-87
2021/10/03 01:26:05;;;;;;;5.07;1.88;;;15.40;99.90;;;;;;4866268;29;20052;-88
2021/10/03 01:28:31;;;;;;;3.47;1.98;;;15.40;99.90;;;;;;4847868;29;20045;-87
2021/10/03 01:30:57;;;;;;;2.65;1.88;;;15.40;99.90;;;;;;4867040;29;20057;-87
2021/10/03 01:33:26;;;;;;;2.40;1.70;;;15.50;99.90;;;;;;4865146;29;20414;-88
2021/10/03 01:35:55;;;;;;;6.13;1.90;;;15.50;99.90;;;;;;4874480;29;20052;-87
2021/10/03 01:38:21;;;;;;;5.18;1.75;;;15.50;99.90;;;;;;4862711;29;20475;-87
2021/10/03 01:40:48;;;;;;;2.97;1.70;;;15.50;99.90;;;;;;4846305;29;20057;-87
2021/10/03 01:43:18;;;;;;;4.15;1.30;;;15.50;99.90;;;;;;4860539;29;20045;-80
2021/10/03 01:45:45;;;;;;;1.92;1.35;;;16.10;99.90;;;;;;4843971;29;20383;-80
2021/10/03 01:48:12;;;;;;;3.95;1.55;;;15.50;99.90;;;;;;4858921;29;20101;-80
2021/10/03 01:50:41;;;;;;;2.72;1.38;;;15.50;99.90;;;;;;4859319;29;20049;-81
2021/10/03 01:53:09;;;;;;;1.95;1.55;;;15.60;99.90;;;;;;4859865;29;20038;-80
2021/10/03 01:55:36;;;;;;;3.90;1.13;;;15.60;99.90;;;;;;4843435;29;20045;-80
2021/10/03 01:58:02;;;;;;;3.13;1.27;;;15.60;99.90;;;;;;4858924;29;20105;-85
2021/10/03 02:00:28;;;;;;;2.75;1.30;;;15.40;99.90;;;;;;4845509;29;20042;-87
2021/10/03 02:03:04;;;;;;;2.40;1.42;;;15.60;99.90;;;;;;4857401;29;20041;-86
2021/10/03 02:05:42;;;;;;;2.38;1.30;;;15.60;99.90;;;;;;4852889;29;20048;-87
2021/10/03 02:08:09;;;;;;;3.65;1.38;;;15.70;99.90;;;;;;4870720;29;20044;-88
2021/10/03 02:10:38;;;;;;;3.70;1.40;;;15.70;99.90;;;;;;4838429;29;20089;-88
2021/10/03 02:13:05;;;;;;;2.08;1.30;;;15.60;99.90;;;;;;4863353;29;20471;-80
2021/10/03 02:15:31;;;;;;;1.85;1.15;;;15.70;99.90;;;;;;4863292;29;20045;-80
2021/10/03 02:17:58;;;;;;;5.05;1.20;;;15.60;99.90;;;;;;4879549;29;20041;-80
2021/10/03 02:20:26;;;;;;;1.67;1.20;;;15.70;99.90;;;;;;4870549;29;20073;-80
2021/10/03 02:22:53;;;;;;;2.63;1.02;;;15.80;99.90;;;;;;4861646;29;20121;-80
2021/10/03 02:25:25;;;;;;;1.67;1.17;;;15.70;99.90;;;;;;4863039;29;20077;-80
2021/10/03 02:27:50;;;;;;;1.95;1.48;;;15.70;99.90;;;;;;4875075;29;20069;-80
2021/10/03 02:30:19;;;;;;;2.50;1.40;;;15.70;99.90;;;;;;4847155;29;20038;-80
2021/10/03 02:32:45;;;;;;;1.73;1.23;;;15.70;99.90;;;;;;4862287;29;20049;-80
2021/10/03 02:35:13;;;;;;;1.63;1.10;;;15.70;99.90;;;;;;4843377;29;20113;-80
2021/10/03 02:37:41;;;;;;;4.85;1.10;;;15.70;99.90;;;;;;4861714;29;20186;-80
2021/10/03 02:40:10;;;;;;;2.63;1.92;;;15.80;99.90;;;;;;4862309;29;20048;-81
2021/10/03 02:42:37;;;;;;;4.70;1.33;;;15.80;99.90;;;;;;4864706;29;20080;-80
2021/10/03 02:45:07;;;;;;;3.15;1.20;;;15.70;99.90;;;;;;4850271;29;20044;-80
2021/10/03 02:47:34;;;;;;;1.50;1.20;;;15.70;99.90;;;;;;4865226;29;20044;-80
2021/10/03 02:50:00;;;;;;;1.65;1.25;;;15.80;99.90;;;;;;4849268;29;20554;-81
2021/10/03 02:52:26;;;;;;;1.67;1.25;;;15.80;99.90;;;;;;4830966;29;20038;-80
2021/10/03 02:54:52;;;;;;;3.22;1.10;;;15.80;99.90;;;;;;4890214;29;20055;-80
2021/10/03 02:57:18;;;;;;;1.98;1.27;;;15.80;99.90;;;;;;4867648;29;20052;-80
2021/10/03 02:59:44;;;;;;;2.90;1.30;;;15.80;99.90;;;;;;4880958;29;20080;-81
2021/10/03 03:02:12;;;;;;;2.00;0.90;;;15.50;99.90;;;;;;4875480;29;20109;-81
2021/10/03 03:04:38;;;;;;;2.03;1.00;;;15.80;99.90;;;;;;4850266;29;20102;-80
2021/10/03 03:07:07;;;;;;;2.22;0.80;;;15.80;99.90;;;;;;4848774;29;20040;-81
2021/10/03 03:09:33;;;;;;;2.38;0.95;;;15.70;99.90;;;;;;4851204;29;20518;-80
2021/10/03 03:12:02;;;;;;;3.33;0.90;;;15.70;99.90;;;;;;4883300;29;20127;-82
2021/10/03 03:14:28;;;;;;;2.83;1.00;;;15.60;99.90;;;;;;4899670;29;20056;-81
2021/10/03 03:16:53;;;;;;;2.63;0.82;;;15.60;99.90;;;;;;4845998;29;20052;-86
2021/10/03 03:19:19;;;;;;;4.10;0.77;;;15.70;99.90;;;;;;4849212;29;20469;-86
2021/10/03 03:21:45;;;;;;;2.50;0.80;;;15.50;99.90;;;;;;4862530;29;20173;-86
2021/10/03 03:24:14;;;;;;;4.43;0.80;;;15.50;99.90;;;;;;4891347;29;20107;-86
2021/10/03 03:26:40;;;;;;;5.65;1.00;;;15.40;99.90;;;;;;4836449;29;20108;-86
2021/10/03 03:29:06;;;;;;;4.20;0.90;;;15.40;99.90;;;;;;4849309;29;20385;-86
2021/10/03 03:31:32;;;;;;;3.40;1.00;;;15.40;99.90;;;;;;4864993;29;20573;-86
2021/10/03 03:33:58;;;;;;;2.00;0.77;;;15.30;99.90;;;;;;4861185;29;20040;-85
2021/10/03 03:36:24;;;;;;;2.95;0.70;;;15.30;99.90;;;;;;4845591;29;20489;-86
2021/10/03 03:38:50;;;;;;;3.17;1.20;;;15.40;99.90;;;;;;4869694;29;20045;-86
2021/10/03 03:41:16;;;;;;;3.67;0.90;;;15.30;99.90;;;;;;4872111;29;20049;-86
2021/10/03 03:43:43;;;;;;;2.58;0.95;;;15.30;99.90;;;;;;4876839;29;20077;-86
2021/10/03 03:46:09;;;;;;;4.07;1.15;;;15.30;99.90;;;;;;4848366;29;20041;-81
2021/10/03 03:48:35;;;;;;;4.10;1.00;;;15.30;99.90;;;;;;4864619;29;20044;-87
2021/10/03 03:51:04;;;;;;;5.45;1.05;;;15.30;99.90;;;;;;4845415;29;20101;-86
2021/10/03 03:53:32;;;;;;;3.15;0.85;;;15.30;99.90;;;;;;4863846;29;20040;-86
2021/10/03 03:55:58;;;;;;;6.72;1.30;;;15.20;99.90;;;;;;4835552;29;20047;-87
2021/10/03 03:58:24;;;;;;;2.25;1.05;;;15.20;99.90;;;;;;4874024;29;20048;-86
2021/10/03 04:00:52;;;;;;;4.32;1.00;;;15.20;99.90;;;;;;4863863;29;20097;-86
2021/10/03 04:03:20;;;;;;;3.13;1.00;;;15.20;99.90;;;;;;4833466;29;20053;-86
2021/10/03 04:05:46;;;;;;;5.07;1.10;;;15.20;99.90;;;;;;4848166;29;20041;-86
2021/10/03 04:08:12;;;;;;;5.18;1.30;;;15.20;99.90;;;;;;4849030;29;20077;-85
2021/10/03 04:10:37;;;;;;;4.65;1.48;;;15.20;99.90;;;;;;4878626;29;20397;-85
2021/10/03 04:13:03;;;;;;;3.15;1.30;;;15.30;99.90;;;;;;4854799;29;20485;-85
2021/10/03 04:15:29;;;;;;;3.85;1.30;;;15.20;99.90;;;;;;4885335;29;20072;-85
2021/10/03 04:17:55;;;;;;;3.20;1.20;;;15.20;99.90;;;;;;4851324;29;20077;-85
2021/10/03 04:20:20;;;;;;;1.92;1.00;;;15.20;99.90;;;;;;4858430;29;20029;-86
2021/10/03 04:22:46;;;;;;;4.68;1.00;;;15.30;99.90;;;;;;4853136;29;20053;-85
2021/10/03 04:25:12;;;;;;;2.53;1.20;;;15.00;99.90;;;;;;4880185;29;20044;-86
2021/10/03 04:27:37;;;;;;;5.15;1.73;;;15.20;99.90;;;;;;4830534;29;20574;-86
2021/10/03 04:30:04;;;;;;;5.25;1.25;;;15.30;99.90;;;;;;4863277;29;20037;-86
2021/10/03 04:32:31;;;;;;;2.60;0.93;;;15.20;99.90;;;;;;4848285;29;20052;-86
2021/10/03 04:34:56;;;;;;;3.75;1.20;;;15.20;99.90;;;;;;4847784;29;20055;-86
2021/10/03 04:37:23;;;;;;;3.10;1.00;;;15.20;99.90;;;;;;4835043;29;20128;-85
2021/10/03 04:39:50;;;;;;;2.83;0.80;;;15.10;99.90;;;;;;4834358;29;20052;-85
2021/10/03 04:42:20;;;;;;;3.90;0.90;;;15.00;99.90;;;;;;4857997;29;20064;-85
2021/10/03 04:44:47;;;;;;;2.33;0.90;;;15.00;99.90;;;;;;4845476;29;20501;-85
2021/10/03 04:47:13;;;;;;;1.88;1.00;;;14.90;99.90;;;;;;4859788;29;20566;-85
2021/10/03 04:49:42;;;;;;;2.88;0.90;;;14.80;99.90;;;;;;4874947;29;20045;-85
2021/10/03 04:52:11;;;;;;;2.28;0.90;;;14.80;99.90;;;;;;4879736;29;20041;-85
2021/10/03 04:54:37;;;;;;;4.15;0.90;;;14.70;99.90;;;;;;4879287;29;20112;-85
2021/10/03 04:57:03;;;;;;;4.63;1.00;;;14.70;99.90;;;;;;4862492;29;20129;-85
2021/10/03 04:59:29;;;;;;;3.38;0.90;;;14.70;99.90;;;;;;4831790;29;20041;-85
2021/10/03 05:01:54;;;;;;;3.90;1.05;;;14.70;99.90;;;;;;4862756;29;20052;-85
2021/10/03 05:04:20;;;;;;;3.17;1.17;;;14.60;99.90;;;;;;4835611;29;20549;-85
2021/10/03 05:06:49;;;;;;;3.90;1.02;;;14.60;99.90;;;;;;4841835;29;20053;-84
2021/10/03 05:09:14;;;;;;;3.92;1.00;;;14.60;99.90;;;;;;4862191;29;20044;-85
2021/10/03 05:11:40;;;;;;;2.95;1.17;;;14.60;99.90;;;;;;4870215;29;20052;-85
2021/10/03 05:14:07;;;;;;;3.78;1.10;;;14.60;99.90;;;;;;4867274;29;20048;-85
2021/10/03 05:16:36;;;;;;;8.80;1.20;;;14.50;99.90;;;;;;4847388;29;20056;-85
2021/10/03 05:19:03;;;;;;;2.72;1.10;;;14.50;99.90;;;;;;4862593;29;20100;-85
2021/10/03 05:21:29;;;;;;;4.70;1.15;;;14.50;99.90;;;;;;4879112;29;20100;-85
2021/10/03 05:23:55;;;;;;;4.25;1.30;;;14.50;99.90;;;;;;4846915;29;20053;-85
2021/10/03 05:26:23;;;;;;;5.78;1.17;;;14.50;99.90;;;;;;4862170;29;20045;-85
2021/10/03 05:28:49;;;;;;;6.25;1.40;;;14.40;99.90;;;;;;4828835;29;20042;-85
2021/10/03 05:31:16;;;;;;;3.13;1.05;;;14.50;99.90;;;;;;4858631;29;20056;-85
2021/10/03 05:33:42;;;;;;;2.72;1.13;;;14.50;99.90;;;;;;4846885;29;20101;-85
2021/10/03 05:36:10;;;;;;;5.47;1.10;;;14.50;99.90;;;;;;4849004;29;20045;-85
2021/10/03 05:38:36;;;;;;;7.75;1.23;;;14.50;99.90;;;;;;4868531;29;20046;-85
2021/10/03 05:41:02;;;;;;;4.35;1.10;;;14.50;99.90;;;;;;4861373;29;20049;-85
2021/10/03 05:43:28;;;;;;;3.40;1.20;;;14.60;99.90;;;;;;4856208;29;20040;-85
2021/10/03 05:45:54;;;;;;;7.25;1.33;;;14.50;99.90;;;;;;4891790;29;20397;-85
2021/10/03 05:48:21;;;;;;;4.55;1.20;;;14.50;99.90;;;;;;4850446;29;20045;-85
2021/10/03 05:50:48;;;;;;;3.38;1.13;;;14.50;99.90;;;;;;4847586;29;20045;-85
2021/10/03 05:53:14;;;;;;;3.83;1.20;;;14.50;99.90;;;;;;4890629;29;20044;-86
2021/10/03 05:55:39;;;;;;;4.65;1.20;;;14.40;99.90;;;;;;4880583;29;20041;-85
2021/10/03 05:58:05;;;;;;;2.85;1.08;;;14.40;99.90;;;;;;4876598;29;20044;-85
2021/10/03 06:00:31;;;;;;;6.95;1.50;;;14.40;99.90;;;;;;4865916;29;20044;-85
2021/10/03 06:02:57;;;;;;;6.30;1.50;;;14.50;99.90;;;;;;4868591;29;20052;-85
2021/10/03 06:05:23;;;;;;;5.53;1.30;;;14.40;99.90;;;;;;4857161;29;20049;-85
2021/10/03 06:07:49;;;;;;;4.43;1.30;;;14.50;99.90;;;;;;4850225;29;20040;-85
2021/10/03 06:10:14;;;;;;;6.57;1.40;;;14.40;99.90;;;;;;4865299;29;20053;-85
2021/10/03 06:12:40;;;;;;;3.13;1.25;;;14.40;99.90;;;;;;4852204;29;20077;-80
2021/10/03 06:15:09;;;;;;;7.13;1.17;;;14.50;99.90;;;;;;4860325;29;20040;-80
2021/10/03 06:17:36;;;;;;;8.85;1.40;;;14.40;99.90;;;;;;4865302;29;20421;-80
2021/10/03 06:20:02;;;;;;;4.93;1.13;;;14.40;99.90;;;;;;4864928;29;20060;-80
2021/10/03 06:22:28;;;;;;;5.68;1.20;;;14.40;99.90;;;;;;4849602;29;20128;-80
2021/10/03 06:24:54;;;;;;;5.82;1.08;;;14.40;99.90;;;;;;4834027;29;20037;-80
2021/10/03 06:27:20;;;;;;;2.45;0.85;;;14.40;99.90;;;;;;4849601;29;20052;-80
2021/10/03 06:29:46;;;;;;;11.02;1.40;;;14.40;99.90;;;;;;4849503;29;20045;-80
2021/10/03 06:32:12;;;;;;;6.47;1.23;;;14.30;99.90;;;;;;4834244;29;20128;-80
2021/10/03 06:34:38;;;;;;;3.67;1.23;;;14.40;99.90;;;;;;4849266;29;20123;-80
2021/10/03 06:37:04;;;;;;;5.72;1.10;;;14.40;99.90;;;;;;4849699;29;20426;-80
2021/10/03 06:39:30;;;;;;;5.45;1.27;;;14.40;99.90;;;;;;4881272;29;20045;-80
2021/10/03 06:41:56;;;;;;;2.85;1.15;;;14.30;99.90;;;;;;4848945;29;20080;-80
2021/10/03 06:44:21;;;;;;;5.22;1.15;;;14.40;99.90;;;;;;4864707;29;20037;-80
2021/10/03 06:46:47;;;;;;;6.82;1.02;;;14.40;99.90;;;;;;4832773;29;20033;-80
2021/10/03 06:49:13;;;;;;;4.20;1.00;;;14.40;99.90;;;;;;4857806;29;20044;-80
2021/10/03 06:51:43;;;;;;;6.97;1.35;;;14.40;99.90;;;;;;4854619;29;20056;-80
2021/10/03 06:54:10;;;;;;;9.15;1.23;;;14.40;99.90;;;;;;4860357;29;20056;-80
2021/10/03 06:56:37;;;;;;;5.78;1.23;;;13.90;99.90;;;;;;4864345;29;20048;-80
2021/10/03 06:59:03;;;;;;;6.38;1.20;;;14.40;99.90;;;;;;4864366;29;20052;-80
2021/10/03 07:01:29;;;;;;;8.27;1.50;;;14.40;99.90;;;;;;4881134;29;20045;-80
2021/10/03 07:03:55;;;;;;;5.22;1.02;;;14.40;99.90;;;;;;4849095;29;20375;-80
2021/10/03 07:06:21;;;;;;;4.95;1.25;;;14.40;99.90;;;;;;4849237;29;20117;-80
2021/10/03 07:08:47;;;;;;;4.95;1.33;;;14.30;99.90;;;;;;4876068;29;20040;-80
2021/10/03 07:11:16;;;;;;;5.85;1.05;;;14.40;99.90;;;;;;4863290;29;20053;-80
2021/10/03 07:13:43;;;;;;;8.55;1.50;;;14.40;99.90;;;;;;4849037;29;20500;-80
2021/10/03 07:16:09;;;;;;;6.03;1.20;;;14.50;99.90;;;;;;4863915;29;20049;-80
2021/10/03 07:18:35;;;;;;;5.30;1.30;;;14.40;99.90;;;;;;4848740;29;20061;-81
2021/10/03 07:21:03;;;;;;;4.93;1.25;;;14.40;99.90;;;;;;4864031;29;20056;-80
2021/10/03 07:23:30;;;;;;;9.65;1.40;;;14.40;99.90;;;;;;4848551;29;20044;-81
2021/10/03 07:25:56;;;;;;;4.35;1.17;;;14.40;99.90;;;;;;4864319;29;20049;-81
2021/10/03 07:28:23;;;;;;;6.90;1.42;;;14.40;99.90;;;;;;4863926;29;20486;-80
2021/10/03 07:30:53;;;;;;;3.80;1.20;;;14.40;99.90;;;;;;4875047;29;20045;-85
2021/10/03 07:33:52;;;;;;;;;;;;;;;;;;;;;
2021/10/03 07:36:21;;;;;;;5.28;1.30;;;14.40;99.90;;;;;;4878591;29;20478;-85
2021/10/03 07:38:47;;;;;;;5.80;1.27;;;14.40;99.90;;;;;;4858672;29;20037;-84
2021/10/03 07:41:30;;;;;;;6.70;1.08;;;14.40;99.90;;;;;;4847114;29;20405;-85
2021/10/03 07:43:56;;;;;;;6.97;1.20;;;14.30;99.90;;;;;;4858190;29;20052;-84
2021/10/03 07:46:22;;;;;;;13.05;1.75;;;14.30;99.90;;;;;;4862534;29;20060;-84
2021/10/03 07:48:49;;;;;;;7.20;1.60;;;14.40;99.90;;;;;;4862540;29;20399;-84
2021/10/03 07:51:17;;;;;;;5.60;1.23;;;14.40;99.90;;;;;;4862356;29;20060;-85
2021/10/03 07:53:43;;;;;;;3.67;1.27;;;14.40;99.90;;;;;;4891202;29;20041;-84
2021/10/03 07:56:14;;;;;;;6.15;1.80;;;14.20;99.90;;;;;;4859163;29;20053;-84
2021/10/03 07:58:40;;;;;;;2.00;0.88;;;14.50;99.90;;;;;;4856021;29;20045;-87
2021/10/03 08:01:05;;;;;;;5.63;1.00;;;14.40;99.90;;;;;;4862151;29;20097;-83
2021/10/03 08:03:33;;;;;;;5.38;1.10;;;14.10;99.90;;;;;;4844215;29;20050;-87
2021/10/03 08:05:59;;;;;;;4.10;1.00;;;13.90;99.90;;;;;;4859756;29;20132;-87
2021/10/03 08:08:24;;;;;;;7.03;1.00;;;13.90;99.90;;;;;;4863175;29;20076;-87
2021/10/03 08:10:50;;;;;;;5.30;0.90;;;13.90;99.90;;;;;;4845533;29;20083;-83
2021/10/03 08:13:17;;;;;;;4.47;1.25;;;14.20;99.90;;;;;;4863257;29;20079;-83
2021/10/03 08:15:43;;;;;;;6.97;1.60;;;13.70;99.90;;;;;;4863033;29;20077;-83
2021/10/03 08:18:10;;;;;;;5.72;1.60;;;13.70;99.90;;;;;;4875884;29;20454;-83
2021/10/03 08:20:40;;;;;;;5.72;1.65;;;13.70;99.90;;;;;;4847542;29;20048;-83
2021/10/03 08:23:07;;;;;;;6.35;1.48;;;13.60;99.90;;;;;;4862507;29;20494;-86
2021/10/03 08:25:32;;;;;;;5.03;1.13;;;13.60;99.90;;;;;;4862912;29;20141;-86
2021/10/03 08:27:58;;;;;;;4.07;1.52;;;13.50;99.90;;;;;;4862973;29;20131;-86
2021/10/03 08:30:24;;;;;;;3.95;1.45;;;13.40;99.90;;;;;;4871147;29;20480;-86
2021/10/03 08:32:50;;;;;;;6.20;1.20;;;13.50;99.90;;;;;;4868309;29;20096;-86
2021/10/03 08:35:16;;;;;;;8.65;1.27;;;13.40;99.90;;;;;;4862822;29;20084;-86
2021/10/03 08:37:43;;;;;;;7.28;1.70;;;13.40;99.90;;;;;;4863022;29;20083;-86
2021/10/03 08:40:11;;;;;;;6.35;1.40;;;13.40;99.90;;;;;;4879165;29;20079;-86
2021/10/03 08:42:37;;;;;;;6.70;1.80;;;13.40;99.90;;;;;;4879043;29;20053;-86
2021/10/03 08:45:04;;;;;;;5.40;1.40;;;13.40;99.90;;;;;;4847090;29;20045;-86
2021/10/03 08:47:30;;;;;;;5.22;1.50;;;13.40;99.90;;;;;;4852010;29;20085;-85
2021/10/03 08:49:57;;;;;;;4.05;1.70;;;13.40;99.90;;;;;;4874307;29;20040;-85
2021/10/03 08:52:26;;;;;;;14.50;1.92;;;13.50;99.90;;;;;;4836628;29;20045;-86
2021/10/03 08:54:53;;;;;;;4.43;1.52;;;13.40;99.90;;;;;;4848538;29;20048;-86
2021/10/03 08:57:19;;;;;;;7.50;1.70;;;13.50;99.90;;;;;;4847257;29;20089;-86
2021/10/03 09:00:11;;;;;;;5.95;2.00;;;13.40;99.90;;;;;;4862385;29;20086;-86
2021/10/03 09:03:06;;;;;;;4.60;2.10;;;13.40;99.90;;;;;;4865617;29;20044;-86
2021/10/03 09:05:38;;;;;;;6.35;2.53;;;13.50;99.90;;;;;;4881038;29;20084;-86
2021/10/03 09:08:04;;;;;;;6.15;2.40;;;13.40;99.90;;;;;;4849930;29;20041;-86
2021/10/03 09:10:54;;;;;;;6.28;2.30;;;13.40;99.90;;;;;;4846652;29;20439;-86
2021/10/03 09:13:41;;;;;;;5.03;1.95;;;13.50;99.90;;;;;;4855391;29;20131;-85
2021/10/03 09:16:32;;;;;;;10.25;4.85;;;13.40;99.90;;;;;;4879047;29;20128;-86
2021/10/03 09:19:10;;;;;;;10.23;4.28;;;13.50;99.90;;;;;;4861988;29;20053;-86
2021/10/03 09:21:44;;;;;;;4.65;1.83;;;13.50;99.90;;;;;;4855077;29;20052;-86
2021/10/03 09:24:18;;;;;;;8.57;2.50;;;13.90;99.90;;;;;;4868791;29;20147;-86
2021/10/03 09:27:01;;;;;;;9.98;2.50;;;13.50;99.90;;;;;;4862016;29;20542;-86
2021/10/03 09:29:32;;;;;;;6.85;2.20;;;13.90;99.90;;;;;;4846804;29;20045;-86
2021/10/03 09:32:22;;;;;;;5.20;2.03;;;13.40;99.90;;;;;;4862138;29;20087;-86
2021/10/03 09:34:53;;;;;;;3.65;1.80;;;13.50;99.90;;;;;;4861989;29;20044;-86
2021/10/03 09:37:19;;;;;;;6.03;1.60;;;13.40;99.90;;;;;;4846873;29;20047;-86
2021/10/03 09:39:45;;;;;;;6.78;1.90;;;13.50;99.90;;;;;;4846716;29;20068;-86
2021/10/03 09:42:13;;;;;;;8.32;2.10;;;13.40;99.90;;;;;;4846365;29;20068;-86
2021/10/03 09:44:39;;;;;;;4.60;1.95;;;13.00;99.90;;;;;;4862359;29;20057;-86
2021/10/03 09:47:06;;;;;;;6.28;2.17;;;13.30;99.90;;;;;;4861856;29;20032;-86
2021/10/03 09:49:33;;;;;;;6.43;2.05;;;13.50;99.90;;;;;;4862295;29;20093;-86
2021/10/03 09:51:59;;;;;;;5.65;2.03;;;13.50;99.90;;;;;;4875115;29;20075;-84
2021/10/03 09:54:29;;;;;;;7.68;1.80;;;13.50;99.90;;;;;;4831350;29;20466;-84
2021/10/03 09:56:54;;;;;;;3.97;1.85;;;13.70;99.90;;;;;;4877849;29;20065;-84
2021/10/03 09:59:23;;;;;;;7.28;2.17;;;13.50;99.90;;;;;;4861662;29;20128;-84
2021/10/03 10:01:52;;;;;;;4.80;1.80;;;13.70;99.90;;;;;;4861544;29;20558;-84
2021/10/03 10:04:19;;;;;;;6.70;2.08;;;13.50;99.90;;;;;;4846375;29;20127;-84
2021/10/03 10:06:46;;;;;;;8.70;1.85;;;13.60;99.90;;;;;;4861859;29;20083;-83
2021/10/03 10:09:17;;;;;;;4.75;1.65;;;13.60;99.90;;;;;;4862047;29;20067;-84
2021/10/03 10:12:00;;;;;;;8.77;2.10;;;13.90;99.90;;;;;;4861497;29;20192;-83
2021/10/03 10:14:34;;;;;;;6.05;1.60;;;13.60;99.90;;;;;;4846481;29;20041;-84
2021/10/03 10:17:18;;;;;;;7.18;1.48;;;13.60;99.90;;;;;;4846120;29;20049;-84
2021/10/03 10:19:44;;;;;;;4.82;1.13;;;13.60;99.90;;;;;;4861573;29;20128;-84
2021/10/03 10:22:15;;;;;;;4.55;1.15;;;13.60;99.90;;;;;;4863411;29;20127;-84
2021/10/03 10:24:49;;;;;;;6.55;1.70;;;13.60;99.90;;;;;;4853058;29;20040;-84
2021/10/03 10:27:21;;;;;;;5.18;1.20;;;13.50;99.90;;;;;;4873871;29;20108;-84
2021/10/03 10:29:57;;;;;;;2.97;1.20;;;13.80;99.90;;;;;;4864776;29;20045;-84
2021/10/03 10:32:24;;;;;;;5.18;1.25;;;13.50;99.90;;;;;;4874808;29;20056;-84
2021/10/03 10:35:08;;;;;;;3.67;1.10;;;13.50;99.90;;;;;;4851557;29;20057;-84
2021/10/03 10:37:49;;;;;;;6.85;1.10;;;13.90;99.90;;;;;;4882229;29;20398;-84
2021/10/03 10:40:21;;;;;;;3.50;1.05;;;13.90;99.90;;;;;;4849807;29;20055;-84
2021/10/03 10:42:54;;;;;;;5.88;1.48;;;13.60;99.90;;;;;;4865463;29;20057;-84
2021/10/03 10:45:41;;;;;;;5.00;1.45;;;13.60;99.90;;;;;;4865771;29;20375;-84
2021/10/03 10:48:07;;;;;;;5.32;1.42;;;13.60;99.90;;;;;;4864879;29;20129;-84
2021/10/03 10:51:00;;;;;;;4.43;1.40;;;13.60;99.90;;;;;;4849613;29;20533;-85
2021/10/03 10:53:39;;;;;;;5.40;1.50;;;13.80;99.90;;;;;;4849121;29;20093;-84
2021/10/03 10:56:24;;;;;;;4.47;1.00;;;13.50;99.90;;;;;;4864588;29;20068;-85
2021/10/03 10:58:53;;;;;;;5.53;1.33;;;13.60;99.90;;;;;;4878103;29;20041;-84
2021/10/03 11:01:30;;;;;;;5.60;1.40;;;13.60;99.90;;;;;;4848805;29;20052;-85
2021/10/03 11:04:01;;;;;;;4.80;1.13;;;13.60;99.90;;;;;;4848921;29;20049;-85
2021/10/03 11:06:27;;;;;;;7.18;1.52;;;13.60;99.90;;;;;;4881362;29;20096;-85
2021/10/03 11:09:09;;;;;;;5.13;1.88;;;13.90;99.90;;;;;;4864594;29;20462;-84
2021/10/03 11:11:54;;;;;;;3.60;1.70;;;13.60;99.90;;;;;;4864320;29;20366;-85
2021/10/03 11:14:24;;;;;;;7.90;2.47;;;13.60;99.90;;;;;;4864876;29;20132;-85
2021/10/03 11:17:09;;;;;;;8.88;3.25;;;13.60;99.90;;;;;;4849138;29;20041;-85
2021/10/03 11:19:44;;;;;;;6.97;3.10;;;13.60;99.90;;;;;;4864647;29;20051;-85
2021/10/03 11:22:15;;;;;;;6.20;3.33;;;13.60;99.90;;;;;;4864459;29;20084;-85
2021/10/03 11:24:53;;;;;;;9.15;3.95;;;14.10;99.90;;;;;;4863529;29;20037;-85
2021/10/03 11:27:26;;;;;;;7.38;4.00;;;13.60;99.90;;;;;;4858791;29;20375;-85
2021/10/03 11:29:55;;;;;;;8.68;4.20;;;13.60;99.90;;;;;;4882437;29;20045;-85
2021/10/03 11:32:29;;;;;;;10.65;4.13;;;13.60;99.90;;;;;;4864295;29;20128;-85
2021/10/03 11:35:00;;;;;;;8.30;4.22;;;13.60;99.90;;;;;;4887215;29;20037;-84
2021/10/03 11:37:39;;;;;;;10.35;4.85;;;13.60;99.90;;;;;;4864106;29;20051;-85
2021/10/03 11:40:08;;;;;;;9.45;4.18;;;13.60;99.90;;;;;;4855710;29;20060;-85
2021/10/03 11:42:39;;;;;;;7.78;3.53;;;13.60;99.90;;;;;;4863815;29;20417;-84
2021/10/03 11:45:12;;;;;;;11.85;2.92;;;13.70;99.90;;;;;;4863598;29;20040;-84
2021/10/03 11:47:43;;;;;;;5.80;2.58;;;13.70;99.90;;;;;;4848301;29;20459;-84
2021/10/03 11:50:14;;;;;;;6.82;2.30;;;13.70;99.90;;;;;;4863986;29;20041;-84
2021/10/03 11:52:40;;;;;;;7.63;1.58;;;13.70;99.90;;;;;;4858221;29;20053;-84
2021/10/03 11:55:16;;;;;;;6.13;1.23;;;13.70;99.90;;;;;;4863168;29;20458;-86
2021/10/03 11:57:45;;;;;;;5.63;1.00;;;13.70;99.90;;;;;;4847761;29;20101;-86
2021/10/03 12:00:16;;;;;;;7.03;1.10;;;13.70;99.90;;;;;;4858585;29;20056;-85
2021/10/03 12:02:47;;;;;;;2.08;0.90;;;13.70;99.90;;;;;;4849922;29;20045;-86
2021/10/03 12:05:23;;;;;;;6.30;1.08;;;13.70;99.90;;;;;;4847825;29;20109;-85
2021/10/03 12:08:09;;;;;;;5.60;1.20;;;13.70;99.90;;;;;;4867077;29;20045;-85
2021/10/03 12:10:42;;;;;;;6.35;1.20;;;13.80;99.90;;;;;;4854158;29;20124;-85
2021/10/03 12:13:16;;;;;;;3.97;1.17;;;13.70;99.90;;;;;;4863098;29;20363;-85
2021/10/03 12:15:51;;;;;;;6.40;1.35;;;13.70;99.90;;;;;;4863269;29;20486;-85
2021/10/03 12:18:29;;;;;;;4.40;1.10;;;13.80;99.90;;;;;;4853801;29;20072;-85
2021/10/03 12:21:02;;;;;;;5.45;1.05;;;13.70;99.90;;;;;;4868374;29;20041;-85
2021/10/03 12:23:42;;;;;;;7.45;1.10;;;13.80;99.90;;;;;;4859530;29;20060;-85
2021/10/03 12:26:34;;;;;;;5.28;1.10;;;13.80;99.90;;;;;;4875642;29;20060;-85
2021/10/03 12:29:14;;;;;;;5.47;1.50;;;13.80;99.90;;;;;;4862818;29;20359;-85
2021/10/03 12:31:51;;;;;;;4.53;1.42;;;13.70;99.90;;;;;;4862876;29;20045;-85
2021/10/03 12:34:23;;;;;;;4.75;1.60;;;13.70;99.90;;;;;;4847492;29;20076;-84
2021/10/03 12:36:49;;;;;;;4.75;1.52;;;13.80;99.90;;;;;;4862193;29;20041;-85
2021/10/03 12:39:16;;;;;;;7.03;1.50;;;13.80;99.90;;;;;;4862939;29;20553;-85
2021/10/03 12:41:42;;;;;;;2.05;1.20;;;13.80;99.90;;;;;;4865673;29;20128;-85
2021/10/03 12:44:07;;;;;;;2.80;1.10;;;13.80;99.90;;;;;;4872287;29;20521;-85
2021/10/03 12:46:34;;;;;;;4.88;1.30;;;13.90;99.90;;;;;;4863311;29;20041;-85
2021/10/03 12:49:03;;;;;;;2.50;1.35;;;13.80;99.90;;;;;;4843863;29;20128;-85
2021/10/03 12:51:29;;;;;;;2.85;1.20;;;13.90;99.90;;;;;;4847152;29;20056;-85
2021/10/03 12:53:58;;;;;;;5.80;1.60;;;13.90;99.90;;;;;;4868674;29;20040;-85
2021/10/03 12:56:25;;;;;;;5.18;1.35;;;13.90;99.90;;;;;;4869409;29;20052;-85